Haslam, Texas
Current Conditions -  °F | °C
As of 6:56 AM on Sunday 21 Dec 2014 (Local Time) from KSHV Reporting Station
Light Fog Light Fog  
Wind Chill: 35°   Ceiling: Unl
Heat Index: 35°   Visibility: 7mi
Dew Point: 34°   Wind: 0mph
Humidity: 96%   Direction: NA
Pressure: 30.15"   Gusts: NA
Location:  31.9194°N, 94.0667°W
Report Text: KSHV 211256Z 00000KT 7SM MIFG FEW046 FEW270 02/01 A3015 RMK AO2 SLP211 T00170011 $
Loading
Personal Weather Stations






























Interactive Weather Map New forecast layout! Learn more

10-Day Weather Forecast

Advertisements
Track Severe Weather on mobile